LIRP/PSA METAR and TAF weather

Enter ICAO airport designator
Station Type Date Time Source
LIRP METAR 2019/06/27 10:15 UTC NOAA

LIRP 271015Z 23003KT CAVOK 35/16 Q1020 NOSIG


Station Type Date Time Source
LIRP Decoded METAR 2019/06/27 10:15 UTC NOAA

Pisa / S. Giusto, Italy (LIRP) 43-41N 010-23E 6M
Jun 27, 2019 - 06:15 AM EDT / 2019.06.27 1015 UTC
Wind: from the SW (230 degrees) at 3 MPH (3 KT):0
Visibility: greater than 7 mile(s):0
Temperature: 95 F (35 C)
Heat index: 95.2 F (35.1 C):1
Dew Point: 60 F (16 C)
Relative Humidity: 32%
Pressure (altimeter): 30.12 in. Hg (1020 hPa)
ob: LIRP 271015Z 23003KT CAVOK 35/16 Q1020 NOSIG
cycle: 10

Station Type Date Time Source
LIRP TAF 2019/06/27 06:21 UTC NOAA

TAF LIRP 270500Z 2706/2806 12005KT CAVOK
BECMG 2711/2713 30010KT
BECMG 2720/2722 VRB02KT

Example: see airport list